sensor_id;sensor_type;location;lat;lon;timestamp;temperature;humidity
3156;DHT22;1588;50.892;7.082;2023-03-31T00:00:34;10.70;99.90
3156;DHT22;1588;50.892;7.082;2023-03-31T00:05:37;10.80;99.90
3156;DHT22;1588;50.892;7.082;2023-03-31T00:10:44;10.80;99.90
3156;DHT22;1588;50.892;7.082;2023-03-31T00:15:46;10.80;99.90
3156;DHT22;1588;50.892;7.082;2023-03-31T00:20:48;10.70;99.90
3156;DHT22;1588;50.892;7.082;2023-03-31T00:25:55;10.80;99.90
3156;DHT22;1588;50.892;7.082;2023-03-31T00:31:00;10.80;99.90
3156;DHT22;1588;50.892;7.082;2023-03-31T00:36:03;10.90;99.90
3156;DHT22;1588;50.892;7.082;2023-03-31T00:41:07;10.90;99.90
3156;DHT22;1588;50.892;7.082;2023-03-31T00:46:14;10.90;99.90
3156;DHT22;1588;50.892;7.082;2023-03-31T00:51:20;11.10;99.90
3156;DHT22;1588;50.892;7.082;2023-03-31T00:56:25;11.00;99.90
3156;DHT22;1588;50.892;7.082;2023-03-31T01:01:29;10.90;99.90
3156;DHT22;1588;50.892;7.082;2023-03-31T01:06:32;10.90;99.90
3156;DHT22;1588;50.892;7.082;2023-03-31T01:11:36;10.80;99.90
3156;DHT22;1588;50.892;7.082;2023-03-31T01:16:38;10.60;99.90
3156;DHT22;1588;50.892;7.082;2023-03-31T01:22:08;10.60;99.90
3156;DHT22;1588;50.892;7.082;2023-03-31T01:27:36;10.40;99.90
3156;DHT22;1588;50.892;7.082;2023-03-31T01:38:49;10.40;99.90
3156;DHT22;1588;50.892;7.082;2023-03-31T01:44:02;10.40;99.90
3156;DHT22;1588;50.892;7.082;2023-03-31T01:49:28;10.40;99.90
3156;DHT22;1588;50.892;7.082;2023-03-31T01:54:37;10.50;99.90
3156;DHT22;1588;50.892;7.082;2023-03-31T01:59:47;10.50;99.90
3156;DHT22;1588;50.892;7.082;2023-03-31T02:04:56;10.50;99.90
3156;DHT22;1588;50.892;7.082;2023-03-31T02:10:03;10.70;99.90
3156;DHT22;1588;50.892;7.082;2023-03-31T02:15:10;10.60;99.90
3156;DHT22;1588;50.892;7.082;2023-03-31T02:20:17;10.70;99.90
3156;DHT22;1588;50.892;7.082;2023-03-31T02:25:23;10.60;99.90
3156;DHT22;1588;50.892;7.082;2023-03-31T02:30:34;10.60;99.90
3156;DHT22;1588;50.892;7.082;2023-03-31T02:35:37;10.70;99.90
3156;DHT22;1588;50.892;7.082;2023-03-31T02:40:42;10.60;99.90
3156;DHT22;1588;50.892;7.082;2023-03-31T02:45:49;10.60;99.90
3156;DHT22;1588;50.892;7.082;2023-03-31T02:51:18;10.50;99.90
3156;DHT22;1588;50.892;7.082;2023-03-31T02:56:43;10.40;99.90
3156;DHT22;1588;50.892;7.082;2023-03-31T03:02:10;10.40;99.90
3156;DHT22;1588;50.892;7.082;2023-03-31T03:07:22;10.40;99.90
3156;DHT22;1588;50.892;7.082;2023-03-31T03:12:32;10.40;99.90
3156;DHT22;1588;50.892;7.082;2023-03-31T03:17:38;10.20;99.90
3156;DHT22;1588;50.892;7.082;2023-03-31T03:22:42;10.30;99.90
3156;DHT22;1588;50.892;7.082;2023-03-31T03:27:45;10.20;99.90
3156;DHT22;1588;50.892;7.082;2023-03-31T03:32:48;10.30;99.90
3156;DHT22;1588;50.892;7.082;2023-03-31T03:37:50;10.20;99.90
3156;DHT22;1588;50.892;7.082;2023-03-31T03:42:53;10.30;99.90
3156;DHT22;1588;50.892;7.082;2023-03-31T03:47:57;10.30;99.90
3156;DHT22;1588;50.892;7.082;2023-03-31T03:52:59;10.30;99.90
3156;DHT22;1588;50.892;7.082;2023-03-31T03:58:02;10.30;99.90
3156;DHT22;1588;50.892;7.082;2023-03-31T04:03:17;10.30;99.90
3156;DHT22;1588;50.892;7.082;2023-03-31T04:08:20;10.30;99.90
3156;DHT22;1588;50.892;7.082;2023-03-31T04:13:22;10.30;99.90
3156;DHT22;1588;50.892;7.082;2023-03-31T04:18:26;10.40;99.90
3156;DHT22;1588;50.892;7.082;2023-03-31T04:23:28;10.50;99.90
3156;DHT22;1588;50.892;7.082;2023-03-31T04:28:30;10.50;99.90
3156;DHT22;1588;50.892;7.082;2023-03-31T04:33:36;10.50;99.90
3156;DHT22;1588;50.892;7.082;2023-03-31T04:38:38;10.60;99.90
3156;DHT22;1588;50.892;7.082;2023-03-31T04:43:42;10.60;99.90
3156;DHT22;1588;50.892;7.082;2023-03-31T04:48:45;10.60;99.90
3156;DHT22;1588;50.892;7.082;2023-03-31T04:53:48;10.60;99.90
3156;DHT22;1588;50.892;7.082;2023-03-31T04:58:50;10.40;99.90
3156;DHT22;1588;50.892;7.082;2023-03-31T05:03:56;10.40;99.90
3156;DHT22;1588;50.892;7.082;2023-03-31T05:09:00;10.30;99.90
3156;DHT22;1588;50.892;7.082;2023-03-31T05:14:02;10.40;99.90
3156;DHT22;1588;50.892;7.082;2023-03-31T05:19:06;10.40;99.90
3156;DHT22;1588;50.892;7.082;2023-03-31T05:24:09;10.40;99.90
3156;DHT22;1588;50.892;7.082;2023-03-31T05:29:11;10.50;99.90
3156;DHT22;1588;50.892;7.082;2023-03-31T05:34:17;10.50;99.90
3156;DHT22;1588;50.892;7.082;2023-03-31T05:39:20;10.40;99.90
3156;DHT22;1588;50.892;7.082;2023-03-31T05:44:22;10.50;99.90
3156;DHT22;1588;50.892;7.082;2023-03-31T05:49:26;10.60;99.90
3156;DHT22;1588;50.892;7.082;2023-03-31T05:54:29;10.60;99.90
3156;DHT22;1588;50.892;7.082;2023-03-31T05:59:31;10.70;99.90
3156;DHT22;1588;50.892;7.082;2023-03-31T06:04:37;10.60;99.90
3156;DHT22;1588;50.892;7.082;2023-03-31T06:09:39;10.60;99.90
3156;DHT22;1588;50.892;7.082;2023-03-31T06:14:42;10.60;99.90
3156;DHT22;1588;50.892;7.082;2023-03-31T06:19:45;10.70;99.90
3156;DHT22;1588;50.892;7.082;2023-03-31T06:24:48;10.70;99.90
3156;DHT22;1588;50.892;7.082;2023-03-31T06:29:50;10.70;99.90
3156;DHT22;1588;50.892;7.082;2023-03-31T06:34:54;10.80;99.90
3156;DHT22;1588;50.892;7.082;2023-03-31T06:39:56;10.90;99.90
3156;DHT22;1588;50.892;7.082;2023-03-31T06:44:59;10.80;99.90
3156;DHT22;1588;50.892;7.082;2023-03-31T06:50:03;10.90;99.90
3156;DHT22;1588;50.892;7.082;2023-03-31T06:55:07;10.90;99.90
3156;DHT22;1588;50.892;7.082;2023-03-31T07:00:11;10.90;99.90
3156;DHT22;1588;50.892;7.082;2023-03-31T07:05:15;11.00;99.90
3156;DHT22;1588;50.892;7.082;2023-03-31T07:10:18;11.20;99.90
3156;DHT22;1588;50.892;7.082;2023-03-31T07:15:24;11.50;99.90
3156;DHT22;1588;50.892;7.082;2023-03-31T07:20:29;11.60;99.90
3156;DHT22;1588;50.892;7.082;2023-03-31T07:25:35;11.70;99.90
3156;DHT22;1588;50.892;7.082;2023-03-31T07:30:39;11.80;99.90
3156;DHT22;1588;50.892;7.082;2023-03-31T07:35:44;11.80;99.90
3156;DHT22;1588;50.892;7.082;2023-03-31T07:40:46;11.90;99.90
3156;DHT22;1588;50.892;7.082;2023-03-31T07:45:49;12.10;99.90
3156;DHT22;1588;50.892;7.082;2023-03-31T07:50:52;12.70;99.90
3156;DHT22;1588;50.892;7.082;2023-03-31T07:55:55;12.90;99.90
3156;DHT22;1588;50.892;7.082;2023-03-31T08:00:58;12.80;99.90
3156;DHT22;1588;50.892;7.082;2023-03-31T08:06:02;12.80;99.90
3156;DHT22;1588;50.892;7.082;2023-03-31T08:11:05;12.90;99.90
3156;DHT22;1588;50.892;7.082;2023-03-31T08:16:08;13.10;99.90
3156;DHT22;1588;50.892;7.082;2023-03-31T08:21:11;13.10;99.90
3156;DHT22;1588;50.892;7.082;2023-03-31T08:26:15;14.10;99.90
3156;DHT22;1588;50.892;7.082;2023-03-31T08:31:19;16.30;99.90
3156;DHT22;1588;50.892;7.082;2023-03-31T08:36:25;16.00;99.90
3156;DHT22;1588;50.892;7.082;2023-03-31T08:41:49;14.70;99.90
3156;DHT22;1588;50.892;7.082;2023-03-31T08:46:55;14.30;99.90
3156;DHT22;1588;50.892;7.082;2023-03-31T08:52:05;14.10;99.90
3156;DHT22;1588;50.892;7.082;2023-03-31T08:57:16;14.30;99.90
3156;DHT22;1588;50.892;7.082;2023-03-31T09:02:25;14.90;99.90
3156;DHT22;1588;50.892;7.082;2023-03-31T09:07:38;15.60;99.90
3156;DHT22;1588;50.892;7.082;2023-03-31T09:12:49;15.20;99.90
3156;DHT22;1588;50.892;7.082;2023-03-31T09:17:52;15.20;99.90
3156;DHT22;1588;50.892;7.082;2023-03-31T09:23:01;16.60;99.90
3156;DHT22;1588;50.892;7.082;2023-03-31T09:28:13;16.70;99.90
3156;DHT22;1588;50.892;7.082;2023-03-31T09:33:27;17.40;99.90
3156;DHT22;1588;50.892;7.082;2023-03-31T09:38:34;18.20;99.90
3156;DHT22;1588;50.892;7.082;2023-03-31T09:43:37;17.10;99.90
3156;DHT22;1588;50.892;7.082;2023-03-31T09:48:47;16.50;99.90
3156;DHT22;1588;50.892;7.082;2023-03-31T09:53:55;15.80;99.90
3156;DHT22;1588;50.892;7.082;2023-03-31T09:59:01;15.70;99.90
3156;DHT22;1588;50.892;7.082;2023-03-31T10:04:07;15.00;99.90
3156;DHT22;1588;50.892;7.082;2023-03-31T10:09:11;15.70;99.90
3156;DHT22;1588;50.892;7.082;2023-03-31T10:14:14;16.00;99.90
3156;DHT22;1588;50.892;7.082;2023-03-31T10:19:20;16.50;99.90
3156;DHT22;1588;50.892;7.082;2023-03-31T10:24:24;15.50;99.90
3156;DHT22;1588;50.892;7.082;2023-03-31T10:29:29;14.90;99.90
3156;DHT22;1588;50.892;7.082;2023-03-31T10:34:32;14.50;99.90
3156;DHT22;1588;50.892;7.082;2023-03-31T10:39:38;14.80;99.90
3156;DHT22;1588;50.892;7.082;2023-03-31T10:44:41;15.00;99.90
3156;DHT22;1588;50.892;7.082;2023-03-31T10:49:44;15.00;99.90
3156;DHT22;1588;50.892;7.082;2023-03-31T10:54:52;15.50;99.90
3156;DHT22;1588;50.892;7.082;2023-03-31T11:00:05;15.60;99.90
3156;DHT22;1588;50.892;7.082;2023-03-31T11:05:15;14.80;99.90
3156;DHT22;1588;50.892;7.082;2023-03-31T11:10:43;14.30;99.90
3156;DHT22;1588;50.892;7.082;2023-03-31T11:15:55;14.40;99.90
3156;DHT22;1588;50.892;7.082;2023-03-31T11:21:04;14.40;99.90
3156;DHT22;1588;50.892;7.082;2023-03-31T11:26:18;14.20;99.90
3156;DHT22;1588;50.892;7.082;2023-03-31T11:31:33;14.00;99.90
3156;DHT22;1588;50.892;7.082;2023-03-31T11:36:49;14.30;99.90
3156;DHT22;1588;50.892;7.082;2023-03-31T11:42:01;14.50;99.90
3156;DHT22;1588;50.892;7.082;2023-03-31T11:47:09;14.60;99.90
3156;DHT22;1588;50.892;7.082;2023-03-31T11:52:15;14.90;99.90
3156;DHT22;1588;50.892;7.082;2023-03-31T11:57:24;14.80;99.90
3156;DHT22;1588;50.892;7.082;2023-03-31T12:02:37;14.90;99.90
3156;DHT22;1588;50.892;7.082;2023-03-31T12:07:43;14.80;99.90
3156;DHT22;1588;50.892;7.082;2023-03-31T12:13:01;14.80;99.90
3156;DHT22;1588;50.892;7.082;2023-03-31T12:18:11;14.80;99.90
3156;DHT22;1588;50.892;7.082;2023-03-31T12:23:17;14.80;99.90
3156;DHT22;1588;50.892;7.082;2023-03-31T12:28:23;15.00;99.90
3156;DHT22;1588;50.892;7.082;2023-03-31T12:33:30;15.10;99.90
3156;DHT22;1588;50.892;7.082;2023-03-31T12:38:45;15.00;99.90
3156;DHT22;1588;50.892;7.082;2023-03-31T12:44:12;15.10;99.90
3156;DHT22;1588;50.892;7.082;2023-03-31T12:49:35;15.10;99.90
3156;DHT22;1588;50.892;7.082;2023-03-31T12:54:56;15.40;99.90
3156;DHT22;1588;50.892;7.082;2023-03-31T13:00:21;15.40;99.90
3156;DHT22;1588;50.892;7.082;2023-03-31T13:05:43;15.40;99.90
3156;DHT22;1588;50.892;7.082;2023-03-31T13:10:55;15.30;99.90
3156;DHT22;1588;50.892;7.082;2023-03-31T13:16:19;15.00;99.90
3156;DHT22;1588;50.892;7.082;2023-03-31T13:21:22;14.80;99.90
3156;DHT22;1588;50.892;7.082;2023-03-31T13:26:37;14.60;99.90
3156;DHT22;1588;50.892;7.082;2023-03-31T13:32:05;13.40;99.90
3156;DHT22;1588;50.892;7.082;2023-03-31T13:37:18;12.80;99.90
3156;DHT22;1588;50.892;7.082;2023-03-31T13:42:44;13.00;99.90
3156;DHT22;1588;50.892;7.082;2023-03-31T13:48:04;13.50;99.90
3156;DHT22;1588;50.892;7.082;2023-03-31T13:53:25;14.00;99.90
3156;DHT22;1588;50.892;7.082;2023-03-31T14:04:05;14.30;99.90
3156;DHT22;1588;50.892;7.082;2023-03-31T14:09:15;14.30;99.90
3156;DHT22;1588;50.892;7.082;2023-03-31T14:14:23;14.30;99.90
3156;DHT22;1588;50.892;7.082;2023-03-31T14:19:47;14.50;99.90
3156;DHT22;1588;50.892;7.082;2023-03-31T14:25:01;14.70;99.90
3156;DHT22;1588;50.892;7.082;2023-03-31T14:30:13;14.80;99.90
3156;DHT22;1588;50.892;7.082;2023-03-31T14:35:28;14.70;99.90
3156;DHT22;1588;50.892;7.082;2023-03-31T14:40:44;14.50;99.90
3156;DHT22;1588;50.892;7.082;2023-03-31T14:45:56;14.60;99.90
3156;DHT22;1588;50.892;7.082;2023-03-31T14:51:02;14.80;99.90
3156;DHT22;1588;50.892;7.082;2023-03-31T14:56:07;15.10;99.90
3156;DHT22;1588;50.892;7.082;2023-03-31T15:01:15;15.10;99.90
3156;DHT22;1588;50.892;7.082;2023-03-31T15:06:19;15.00;99.90
3156;DHT22;1588;50.892;7.082;2023-03-31T15:11:26;14.70;99.90
3156;DHT22;1588;50.892;7.082;2023-03-31T15:16:33;14.60;99.90
3156;DHT22;1588;50.892;7.082;2023-03-31T15:21:39;14.60;99.90
3156;DHT22;1588;50.892;7.082;2023-03-31T15:26:46;14.50;99.90
3156;DHT22;1588;50.892;7.082;2023-03-31T15:31:49;14.40;99.90
3156;DHT22;1588;50.892;7.082;2023-03-31T15:36:55;14.30;99.90
3156;DHT22;1588;50.892;7.082;2023-03-31T15:42:00;14.20;99.90
3156;DHT22;1588;50.892;7.082;2023-03-31T15:47:10;14.20;99.90
3156;DHT22;1588;50.892;7.082;2023-03-31T15:52:21;14.10;99.90
3156;DHT22;1588;50.892;7.082;2023-03-31T15:57:31;14.10;99.90
3156;DHT22;1588;50.892;7.082;2023-03-31T16:02:39;14.00;99.90
3156;DHT22;1588;50.892;7.082;2023-03-31T16:07:54;14.00;99.90
3156;DHT22;1588;50.892;7.082;2023-03-31T16:12:58;13.30;99.90
3156;DHT22;1588;50.892;7.082;2023-03-31T16:18:04;13.30;99.90
3156;DHT22;1588;50.892;7.082;2023-03-31T16:23:17;13.20;99.90
3156;DHT22;1588;50.892;7.082;2023-03-31T16:28:22;13.20;99.90
3156;DHT22;1588;50.892;7.082;2023-03-31T16:33:27;13.00;99.90
3156;DHT22;1588;50.892;7.082;2023-03-31T16:38:37;12.80;99.90
3156;DHT22;1588;50.892;7.082;2023-03-31T16:43:40;12.80;99.90
3156;DHT22;1588;50.892;7.082;2023-03-31T16:48:46;12.70;99.90
3156;DHT22;1588;50.892;7.082;2023-03-31T16:53:50;12.70;99.90
3156;DHT22;1588;50.892;7.082;2023-03-31T16:58:53;12.70;99.90
3156;DHT22;1588;50.892;7.082;2023-03-31T17:03:56;12.70;99.90
3156;DHT22;1588;50.892;7.082;2023-03-31T17:08:59;12.70;99.90
3156;DHT22;1588;50.892;7.082;2023-03-31T17:14:03;12.70;99.90
3156;DHT22;1588;50.892;7.082;2023-03-31T17:19:06;12.70;99.90
3156;DHT22;1588;50.892;7.082;2023-03-31T17:24:10;12.70;99.90
3156;DHT22;1588;50.892;7.082;2023-03-31T17:29:12;12.70;99.90
3156;DHT22;1588;50.892;7.082;2023-03-31T17:34:15;12.60;99.90
3156;DHT22;1588;50.892;7.082;2023-03-31T17:39:19;12.70;99.90
3156;DHT22;1588;50.892;7.082;2023-03-31T17:44:21;12.70;99.90
3156;DHT22;1588;50.892;7.082;2023-03-31T17:49:24;12.60;99.90
3156;DHT22;1588;50.892;7.082;2023-03-31T17:54:28;12.70;99.90
3156;DHT22;1588;50.892;7.082;2023-03-31T17:59:31;12.80;99.90
3156;DHT22;1588;50.892;7.082;2023-03-31T18:04:33;12.80;99.90
3156;DHT22;1588;50.892;7.082;2023-03-31T18:09:37;12.70;99.90
3156;DHT22;1588;50.892;7.082;2023-03-31T18:14:40;12.60;99.90
3156;DHT22;1588;50.892;7.082;2023-03-31T18:19:43;12.60;99.90
3156;DHT22;1588;50.892;7.082;2023-03-31T18:24:47;12.50;99.90
3156;DHT22;1588;50.892;7.082;2023-03-31T18:29:50;12.50;99.90
3156;DHT22;1588;50.892;7.082;2023-03-31T18:34:54;12.50;99.90
3156;DHT22;1588;50.892;7.082;2023-03-31T18:39:58;12.40;99.90
3156;DHT22;1588;50.892;7.082;2023-03-31T18:45:01;12.30;99.90
3156;DHT22;1588;50.892;7.082;2023-03-31T18:50:04;12.30;99.90
3156;DHT22;1588;50.892;7.082;2023-03-31T18:55:09;12.20;99.90
3156;DHT22;1588;50.892;7.082;2023-03-31T19:00:12;12.20;99.90
3156;DHT22;1588;50.892;7.082;2023-03-31T19:05:17;12.10;99.90
3156;DHT22;1588;50.892;7.082;2023-03-31T19:10:21;12.30;99.90
3156;DHT22;1588;50.892;7.082;2023-03-31T19:15:23;12.20;99.90
3156;DHT22;1588;50.892;7.082;2023-03-31T19:20:28;12.10;99.90
3156;DHT22;1588;50.892;7.082;2023-03-31T19:25:32;12.10;99.90
3156;DHT22;1588;50.892;7.082;2023-03-31T19:30:35;12.10;99.90
3156;DHT22;1588;50.892;7.082;2023-03-31T19:35:40;12.00;99.90
3156;DHT22;1588;50.892;7.082;2023-03-31T19:40:44;11.90;99.90
3156;DHT22;1588;50.892;7.082;2023-03-31T19:45:47;11.80;99.90
3156;DHT22;1588;50.892;7.082;2023-03-31T19:50:50;11.70;99.90
3156;DHT22;1588;50.892;7.082;2023-03-31T19:55:56;11.70;99.90
3156;DHT22;1588;50.892;7.082;2023-03-31T20:00:59;11.50;99.90
3156;DHT22;1588;50.892;7.082;2023-03-31T20:06:03;11.50;99.90
3156;DHT22;1588;50.892;7.082;2023-03-31T20:11:10;11.50;99.90
3156;DHT22;1588;50.892;7.082;2023-03-31T20:16:15;11.40;99.90
3156;DHT22;1588;50.892;7.082;2023-03-31T20:21:20;11.40;99.90
3156;DHT22;1588;50.892;7.082;2023-03-31T20:26:27;11.40;99.90
3156;DHT22;1588;50.892;7.082;2023-03-31T20:31:31;11.40;99.90
3156;DHT22;1588;50.892;7.082;2023-03-31T20:36:36;11.50;99.90
3156;DHT22;1588;50.892;7.082;2023-03-31T20:41:41;11.40;99.90
3156;DHT22;1588;50.892;7.082;2023-03-31T20:46:43;11.30;99.90
3156;DHT22;1588;50.892;7.082;2023-03-31T20:51:47;11.20;99.90
3156;DHT22;1588;50.892;7.082;2023-03-31T20:56:51;11.20;99.90
3156;DHT22;1588;50.892;7.082;2023-03-31T21:01:54;11.20;99.90
3156;DHT22;1588;50.892;7.082;2023-03-31T21:06:57;11.20;99.90
3156;DHT22;1588;50.892;7.082;2023-03-31T21:12:01;11.20;99.90
3156;DHT22;1588;50.892;7.082;2023-03-31T21:17:04;11.20;99.90
3156;DHT22;1588;50.892;7.082;2023-03-31T21:22:07;11.20;99.90
3156;DHT22;1588;50.892;7.082;2023-03-31T21:27:10;11.20;99.90
3156;DHT22;1588;50.892;7.082;2023-03-31T21:32:13;11.20;99.90
3156;DHT22;1588;50.892;7.082;2023-03-31T21:37:16;11.30;99.90
3156;DHT22;1588;50.892;7.082;2023-03-31T21:42:20;11.30;99.90
3156;DHT22;1588;50.892;7.082;2023-03-31T21:47:24;11.20;99.90
3156;DHT22;1588;50.892;7.082;2023-03-31T21:52:26;11.10;99.90
3156;DHT22;1588;50.892;7.082;2023-03-31T21:57:31;11.10;99.90
3156;DHT22;1588;50.892;7.082;2023-03-31T22:02:33;11.10;99.90
3156;DHT22;1588;50.892;7.082;2023-03-31T22:07:36;11.10;99.90
3156;DHT22;1588;50.892;7.082;2023-03-31T22:12:40;11.10;99.90
3156;DHT22;1588;50.892;7.082;2023-03-31T22:17:42;11.10;99.90
3156;DHT22;1588;50.892;7.082;2023-03-31T22:22:44;11.00;99.90
3156;DHT22;1588;50.892;7.082;2023-03-31T22:27:48;11.10;99.90
3156;DHT22;1588;50.892;7.082;2023-03-31T22:32:51;11.10;99.90
3156;DHT22;1588;50.892;7.082;2023-03-31T22:37:55;11.00;99.90
3156;DHT22;1588;50.892;7.082;2023-03-31T22:42:58;11.00;99.90
3156;DHT22;1588;50.892;7.082;2023-03-31T22:48:01;11.10;99.90
3156;DHT22;1588;50.892;7.082;2023-03-31T22:53:04;10.90;99.90
3156;DHT22;1588;50.892;7.082;2023-03-31T22:58:08;11.00;99.90
3156;DHT22;1588;50.892;7.082;2023-03-31T23:03:11;11.00;99.90
3156;DHT22;1588;50.892;7.082;2023-03-31T23:08:16;10.80;99.90
3156;DHT22;1588;50.892;7.082;2023-03-31T23:13:19;10.80;99.90
3156;DHT22;1588;50.892;7.082;2023-03-31T23:18:22;10.60;99.90
3156;DHT22;1588;50.892;7.082;2023-03-31T23:23:24;10.70;99.90
3156;DHT22;1588;50.892;7.082;2023-03-31T23:28:28;10.70;99.90
3156;DHT22;1588;50.892;7.082;2023-03-31T23:33:31;10.60;99.90
3156;DHT22;1588;50.892;7.082;2023-03-31T23:38:34;10.60;99.90
3156;DHT22;1588;50.892;7.082;2023-03-31T23:43:43;10.60;99.90
3156;DHT22;1588;50.892;7.082;2023-03-31T23:48:47;10.60;99.90
3156;DHT22;1588;50.892;7.082;2023-03-31T23:53:50;10.60;99.90
3156;DHT22;1588;50.892;7.082;2023-03-31T23:58:53;10.60;99.90
